createdAt,value
2019-05-01T00:00:23.620Z,19.77
2019-05-01T00:03:02.850Z,19.15
2019-05-01T00:05:33.008Z,18.60
2019-05-01T00:08:01.713Z,25.97
2019-05-01T00:10:30.714Z,19.57
2019-05-01T00:12:59.153Z,17.35
2019-05-01T00:15:29.253Z,32.55
2019-05-01T00:17:57.685Z,26.48
2019-05-01T00:20:26.448Z,17.65
2019-05-01T00:22:55.341Z,18.23
2019-05-01T00:25:24.131Z,16.93
2019-05-01T00:27:52.589Z,14.45
2019-05-01T00:30:30.121Z,14.07
2019-05-01T00:32:55.171Z,15.63
2019-05-01T00:35:23.907Z,15.03
2019-05-01T00:37:52.705Z,14.53
2019-05-01T00:40:21.495Z,14.93
2019-05-01T00:42:49.940Z,15.72
2019-05-01T00:45:18.441Z,13.78
2019-05-01T00:47:47.260Z,15.68
2019-05-01T00:50:16.158Z,16.12
2019-05-01T00:52:44.588Z,16.10
2019-05-01T00:55:30.720Z,16.42
2019-05-01T00:58:00.790Z,16.32
2019-05-01T01:00:43.274Z,16.60
2019-05-01T01:03:10.567Z,18.10
2019-05-01T01:05:39.011Z,19.10
2019-05-01T01:08:07.795Z,19.55
2019-05-01T01:10:36.314Z,18.32
2019-05-01T01:13:04.771Z,16.35
2019-05-01T01:15:33.419Z,16.02
2019-05-01T01:18:01.856Z,16.67
2019-05-01T01:20:30.380Z,22.27
2019-05-01T01:22:58.885Z,15.88
2019-05-01T01:25:27.468Z,14.98
2019-05-01T01:27:55.918Z,39.85
2019-05-01T01:30:24.685Z,22.22
2019-05-01T01:32:53.132Z,15.35
2019-05-01T01:35:21.571Z,16.55
2019-05-01T01:37:50.348Z,33.48
2019-05-01T01:40:18.911Z,19.17
2019-05-01T01:42:49.171Z,16.80
2019-05-01T01:45:19.699Z,14.53
2019-05-01T01:48:06.711Z,14.20
2019-05-01T01:50:35.388Z,18.57
2019-05-01T01:53:04.255Z,32.93
2019-05-01T01:55:32.786Z,14.53
2019-05-01T01:58:01.765Z,37.10
2019-05-01T02:00:32.203Z,53.85
2019-05-01T02:03:02.737Z,22.05
2019-05-01T02:05:32.886Z,17.23
2019-05-01T02:08:01.557Z,26.73
2019-05-01T02:10:42.335Z,68.83
2019-05-01T02:13:00.863Z,13.38
2019-05-01T02:15:29.534Z,25.00
2019-05-01T02:17:57.983Z,14.33
2019-05-01T02:20:26.413Z,14.85
2019-05-01T02:22:54.873Z,13.40
2019-05-01T02:25:24.025Z,15.98
2019-05-01T02:27:54.971Z,14.38
2019-05-01T02:30:24.549Z,14.50
2019-05-01T02:32:54.395Z,17.32
2019-05-01T02:35:23.174Z,14.47
2019-05-01T02:37:52.931Z,13.83
2019-05-01T02:40:43.081Z,12.88
2019-05-01T02:43:14.604Z,13.15
2019-05-01T02:45:45.624Z,10.50
2019-05-01T02:48:17.298Z,9.68
2019-05-01T02:50:48.799Z,11.15
2019-05-01T02:53:20.056Z,11.83
2019-05-01T02:55:50.579Z,10.70
2019-05-01T02:58:19.479Z,11.12
2019-05-01T03:00:47.988Z,11.97
2019-05-01T03:03:16.757Z,11.78
2019-05-01T03:05:45.273Z,15.20
2019-05-01T03:08:13.776Z,13.43
2019-05-01T03:10:42.382Z,14.25
2019-05-01T03:13:11.149Z,17.50
2019-05-01T03:15:40.002Z,14.13
2019-05-01T03:18:16.269Z,15.95
2019-05-01T03:21:03.274Z,15.08
2019-05-01T03:23:33.428Z,14.55
2019-05-01T03:26:02.007Z,14.68
2019-05-01T03:28:31.124Z,15.80
2019-05-01T03:30:59.625Z,15.38
2019-05-01T03:33:28.937Z,14.47
2019-05-01T03:35:57.840Z,25.45
2019-05-01T03:38:26.927Z,22.62
2019-05-01T03:40:56.008Z,16.12
2019-05-01T03:43:26.008Z,176.53
2019-05-01T03:45:55.754Z,87.85
2019-05-01T03:48:25.488Z,104.60
2019-05-01T03:50:54.910Z,53.23
2019-05-01T03:53:23.690Z,14.83
2019-05-01T03:55:52.489Z,23.42
2019-05-01T03:58:21.272Z,15.58
2019-05-01T04:00:51.433Z,24.92
2019-05-01T04:03:24.945Z,139.88
2019-05-01T04:05:54.142Z,113.32
2019-05-01T04:08:22.590Z,50.43
2019-05-01T04:10:51.309Z,24.90
2019-05-01T04:13:19.913Z,33.20
2019-05-01T04:15:49.105Z,16.30
2019-05-01T04:18:17.689Z,37.70
2019-05-01T04:20:46.199Z,20.30
2019-05-01T04:23:15.792Z,24.47
2019-05-01T04:25:44.638Z,14.50
2019-05-01T04:28:30.368Z,15.98
2019-05-01T04:31:10.011Z,23.30
2019-05-01T04:33:40.154Z,13.25
2019-05-01T04:36:10.971Z,11.05
2019-05-01T04:38:39.562Z,14.38
2019-05-01T04:41:08.658Z,10.75
2019-05-01T04:43:37.178Z,12.65
2019-05-01T04:46:05.947Z,17.45
2019-05-01T04:48:34.395Z,11.63
2019-05-01T04:51:03.189Z,11.85
2019-05-01T04:53:31.883Z,11.68
2019-05-01T04:56:00.758Z,13.53
2019-05-01T04:58:29.420Z,12.35
2019-05-01T05:00:58.290Z,15.40
2019-05-01T05:03:28.198Z,14.33
2019-05-01T05:05:57.000Z,12.05
2019-05-01T05:08:25.496Z,20.45
2019-05-01T05:10:56.533Z,27.20
2019-05-01T05:13:27.113Z,42.85
2019-05-01T05:15:57.377Z,34.60
2019-05-01T05:18:27.005Z,15.75
2019-05-01T05:20:55.926Z,17.90
2019-05-01T05:23:24.434Z,22.42
2019-05-01T05:25:53.055Z,16.80
2019-05-01T05:28:22.381Z,16.75
2019-05-01T05:30:52.484Z,20.00
2019-05-01T05:33:23.142Z,30.10
2019-05-01T05:35:53.775Z,20.97
2019-05-01T05:38:25.117Z,18.57
2019-05-01T05:40:54.688Z,20.10
2019-05-01T05:43:24.060Z,55.73
2019-05-01T05:45:52.832Z,16.75
2019-05-01T05:48:21.628Z,21.97
2019-05-01T05:50:56.973Z,22.27
2019-05-01T05:53:30.156Z,23.42
2019-05-01T05:56:03.231Z,17.82
2019-05-01T05:58:42.283Z,14.98
2019-05-01T06:01:30.111Z,21.45
2019-05-01T06:04:18.059Z,13.93
2019-05-01T06:06:55.936Z,15.20
2019-05-01T06:09:29.445Z,29.75
2019-05-01T06:12:16.872Z,18.98
2019-05-01T06:14:55.373Z,16.65
2019-05-01T06:17:28.680Z,19.27
2019-05-01T06:20:13.840Z,20.15
2019-05-01T06:23:01.679Z,22.02
2019-05-01T06:25:42.737Z,17.92
2019-05-01T06:28:12.360Z,18.62
2019-05-01T06:30:42.089Z,19.10
2019-05-01T06:33:11.784Z,19.30
2019-05-01T06:35:40.237Z,25.05
2019-05-01T06:38:16.797Z,21.48
2019-05-01T06:40:48.115Z,21.02
2019-05-01T06:43:33.558Z,25.72
2019-05-01T06:46:12.536Z,25.70
2019-05-01T06:49:02.240Z,23.40
2019-05-01T06:51:35.343Z,23.65
2019-05-01T06:54:11.353Z,22.55
2019-05-01T06:56:38.472Z,27.50
2019-05-01T06:59:07.545Z,21.12
2019-05-01T07:01:37.256Z,22.22
2019-05-01T07:04:06.368Z,23.55
2019-05-01T07:06:35.541Z,21.57
2019-05-01T07:09:06.912Z,23.80
2019-05-01T07:11:37.864Z,19.62
2019-05-01T07:14:11.249Z,19.45
2019-05-01T07:16:38.058Z,23.52
2019-05-01T07:19:09.259Z,24.72
2019-05-01T07:21:38.508Z,22.65
2019-05-01T07:24:07.003Z,21.75
2019-05-01T07:26:35.655Z,23.27
2019-05-01T07:29:09.919Z,22.52
2019-05-01T07:31:36.708Z,23.70
2019-05-01T07:34:16.043Z,24.25
2019-05-01T07:36:36.289Z,26.00
2019-05-01T07:39:09.925Z,24.43
2019-05-01T07:41:38.797Z,23.15
2019-05-01T07:44:09.471Z,23.40
2019-05-01T07:46:48.810Z,27.15
2019-05-01T07:49:17.718Z,25.75
2019-05-01T07:51:53.260Z,29.57
2019-05-01T07:54:23.035Z,30.52
2019-05-01T07:56:52.136Z,26.07
2019-05-01T07:59:22.774Z,27.60
2019-05-01T08:01:58.614Z,26.80
2019-05-01T08:04:35.811Z,27.00
2019-05-01T08:06:58.688Z,30.30
2019-05-01T08:09:27.305Z,26.10
2019-05-01T08:11:55.995Z,26.90
2019-05-01T08:14:24.791Z,26.12
2019-05-01T08:16:53.285Z,25.50
2019-05-01T08:19:23.413Z,26.50
2019-05-01T08:22:05.658Z,28.87
2019-05-01T08:24:34.156Z,30.37
2019-05-01T08:27:02.969Z,28.67
2019-05-01T08:29:49.432Z,28.95
2019-05-01T08:32:19.526Z,26.00
2019-05-01T08:34:49.356Z,27.75
2019-05-01T08:37:22.675Z,27.02
2019-05-01T08:39:48.553Z,26.70
2019-05-01T08:42:17.212Z,26.12
2019-05-01T08:44:47.635Z,27.48
2019-05-01T08:47:34.389Z,25.10
2019-05-01T08:50:11.217Z,24.77
2019-05-01T08:52:42.614Z,25.70
2019-05-01T08:55:10.948Z,24.55
2019-05-01T08:57:39.762Z,25.30
2019-05-01T09:00:08.928Z,23.83
2019-05-01T09:02:41.798Z,23.15
2019-05-01T09:05:27.012Z,25.90
2019-05-01T09:07:39.263Z,23.83
2019-05-01T09:10:09.301Z,18.52
2019-05-01T09:12:37.904Z,20.40
2019-05-01T09:15:12.836Z,21.70
2019-05-01T09:17:38.266Z,22.00
2019-05-01T09:20:07.381Z,20.25
2019-05-01T09:22:35.965Z,20.32
2019-05-01T09:25:05.037Z,17.75
2019-05-01T09:27:41.507Z,20.88
2019-05-01T09:30:12.481Z,18.32
2019-05-01T09:32:45.921Z,18.95
2019-05-01T09:35:15.853Z,20.20
2019-05-01T09:37:42.541Z,17.75
2019-05-01T09:40:11.232Z,24.63
2019-05-01T09:42:40.028Z,17.85
2019-05-01T09:45:09.392Z,16.67
2019-05-01T09:47:38.225Z,17.20
2019-05-01T09:50:08.764Z,14.30
2019-05-01T09:53:15.275Z,18.48
2019-05-01T09:55:48.811Z,16.02
2019-05-01T09:58:28.859Z,15.95
2019-05-01T10:00:58.955Z,15.60
2019-05-01T10:03:27.385Z,14.38
2019-05-01T10:05:56.161Z,12.58
2019-05-01T10:08:24.603Z,14.53
2019-05-01T10:10:53.093Z,16.12
2019-05-01T10:13:22.770Z,14.33
2019-05-01T10:15:52.464Z,13.68
2019-05-01T10:18:21.252Z,15.45
2019-05-01T10:20:49.720Z,18.90
2019-05-01T10:23:18.436Z,16.93
2019-05-01T10:25:49.833Z,14.03
2019-05-01T10:28:23.126Z,17.07
2019-05-01T10:30:53.205Z,15.55
2019-05-01T10:33:23.633Z,13.53
2019-05-01T10:36:17.810Z,14.93
2019-05-01T10:38:40.027Z,13.83
2019-05-01T10:41:10.640Z,14.33
2019-05-01T10:43:39.199Z,15.03
2019-05-01T10:46:07.641Z,13.40
2019-05-01T10:48:36.088Z,15.03
2019-05-01T10:51:04.593Z,15.40
2019-05-01T10:53:33.088Z,11.35
2019-05-01T10:56:01.805Z,18.50
2019-05-01T10:58:30.279Z,14.43
2019-05-01T11:01:00.367Z,14.05
2019-05-01T11:03:28.802Z,15.43
2019-05-01T11:05:57.258Z,16.45
2019-05-01T11:08:25.980Z,13.70
2019-05-01T11:10:54.440Z,15.53
2019-05-01T11:13:23.153Z,16.73
2019-05-01T11:15:51.712Z,13.83
2019-05-01T11:18:20.143Z,16.07
2019-05-01T11:20:48.611Z,18.17
2019-05-01T11:23:17.040Z,17.20
2019-05-01T11:25:45.792Z,15.58
2019-05-01T11:28:14.581Z,15.38
2019-05-01T11:30:43.033Z,13.03
2019-05-01T11:33:16.072Z,18.30
2019-05-01T11:35:46.171Z,14.35
2019-05-01T11:38:18.909Z,13.95
2019-05-01T11:40:51.709Z,13.95
2019-05-01T11:43:20.155Z,15.90
2019-05-01T11:45:48.595Z,10.72
2019-05-01T11:48:17.415Z,13.62
2019-05-01T11:50:45.858Z,12.40
2019-05-01T11:53:14.593Z,15.38
2019-05-01T11:55:43.777Z,16.50
2019-05-01T11:58:12.588Z,13.58
2019-05-01T12:00:41.197Z,11.08
2019-05-01T12:03:09.964Z,14.98
2019-05-01T12:05:38.653Z,13.40
2019-05-01T12:08:07.099Z,13.53
2019-05-01T12:10:35.873Z,11.35
2019-05-01T12:13:04.468Z,13.45
2019-05-01T12:15:33.216Z,14.73
2019-05-01T12:18:01.659Z,12.70
2019-05-01T12:20:30.093Z,12.45
2019-05-01T12:22:58.535Z,9.05
2019-05-01T12:25:27.265Z,10.03
2019-05-01T12:27:55.768Z,10.70
2019-05-01T12:30:24.193Z,12.05
2019-05-01T12:32:52.696Z,13.90
2019-05-01T12:35:44.437Z,8.58
2019-05-01T12:38:13.230Z,11.65
2019-05-01T12:40:43.044Z,9.88
2019-05-01T12:43:12.381Z,10.95
2019-05-01T12:45:42.577Z,12.03
2019-05-01T12:48:11.472Z,14.55
2019-05-01T12:50:39.935Z,11.03
2019-05-01T12:53:15.632Z,9.55
2019-05-01T12:55:46.037Z,9.65
2019-05-01T12:58:14.469Z,9.70
2019-05-01T13:00:46.587Z,9.23
2019-05-01T13:03:15.560Z,12.20
2019-05-01T13:05:44.098Z,10.72
2019-05-01T13:08:12.892Z,11.63
2019-05-01T13:10:41.344Z,10.72
2019-05-01T13:13:11.213Z,14.63
2019-05-01T13:15:40.004Z,12.95
2019-05-01T13:18:08.481Z,13.60
2019-05-01T13:20:37.246Z,12.70
2019-05-01T13:23:06.040Z,9.88
2019-05-01T13:25:34.474Z,12.45
2019-05-01T13:28:17.037Z,11.35
2019-05-01T13:31:03.420Z,9.33
2019-05-01T13:33:31.945Z,10.82
2019-05-01T13:36:00.373Z,11.45
2019-05-01T13:38:28.825Z,9.03
2019-05-01T13:40:57.251Z,9.58
2019-05-01T13:43:25.725Z,9.10
2019-05-01T13:45:54.443Z,10.48
2019-05-01T13:48:23.241Z,9.85
2019-05-01T13:50:52.023Z,9.68
2019-05-01T13:53:20.553Z,9.88
2019-05-01T13:55:48.988Z,10.18
2019-05-01T13:58:17.439Z,11.45
2019-05-01T14:00:45.877Z,10.05
2019-05-01T14:03:14.775Z,12.10
2019-05-01T14:05:43.204Z,7.10
2019-05-01T14:08:11.677Z,10.88
2019-05-01T14:10:40.534Z,8.75
2019-05-01T14:13:09.328Z,11.10
2019-05-01T14:15:38.119Z,7.65
2019-05-01T14:18:06.552Z,9.23
2019-05-01T14:20:48.808Z,11.28
2019-05-01T14:23:35.287Z,7.47
2019-05-01T14:26:05.736Z,10.15
2019-05-01T14:28:36.101Z,8.48
2019-05-01T14:31:05.888Z,8.85
2019-05-01T14:33:53.653Z,8.35
2019-05-01T14:36:22.105Z,11.40
2019-05-01T14:38:50.531Z,7.42
2019-05-01T14:41:18.990Z,13.68
2019-05-01T14:43:47.626Z,10.55
2019-05-01T14:46:16.099Z,9.58
2019-05-01T14:48:44.930Z,8.88
2019-05-01T14:51:13.385Z,10.90
2019-05-01T14:53:41.816Z,7.55
2019-05-01T14:56:10.264Z,11.70
2019-05-01T14:58:38.975Z,9.28
2019-05-01T15:01:07.768Z,9.80
2019-05-01T15:03:36.242Z,9.60
2019-05-01T15:06:05.053Z,11.65
2019-05-01T15:08:33.837Z,8.55
2019-05-01T15:11:02.639Z,9.00
2019-05-01T15:13:41.772Z,8.60
2019-05-01T15:16:15.055Z,8.65
2019-05-01T15:19:01.737Z,8.05
2019-05-01T15:21:30.548Z,8.68
2019-05-01T15:23:58.996Z,8.30
2019-05-01T15:26:27.423Z,8.50
2019-05-01T15:28:55.888Z,7.03
2019-05-01T15:31:24.603Z,8.70
2019-05-01T15:33:53.030Z,8.28
2019-05-01T15:36:21.490Z,10.25
2019-05-01T15:38:49.913Z,9.70
2019-05-01T15:41:37.074Z,9.85
2019-05-01T15:44:07.499Z,10.65
2019-05-01T15:46:37.591Z,8.08
2019-05-01T15:49:06.320Z,9.18
2019-05-01T15:51:34.770Z,8.13
2019-05-01T15:54:03.208Z,9.05
2019-05-01T15:56:31.973Z,8.20
2019-05-01T15:59:00.405Z,7.92
2019-05-01T16:01:28.851Z,10.30
2019-05-01T16:03:57.287Z,7.03
2019-05-01T16:06:25.744Z,8.80
2019-05-01T16:08:54.184Z,7.35
2019-05-01T16:11:30.980Z,8.70
2019-05-01T16:13:59.409Z,9.50
2019-05-01T16:16:27.853Z,12.65
2019-05-01T16:18:56.304Z,10.00
2019-05-01T16:21:24.748Z,10.60
2019-05-01T16:23:53.189Z,7.17
2019-05-01T16:26:21.638Z,8.60
2019-05-01T16:28:50.485Z,9.40
2019-05-01T16:31:19.281Z,9.15
2019-05-01T16:33:47.728Z,8.65
2019-05-01T16:36:16.226Z,9.95
2019-05-01T16:38:49.353Z,8.00
2019-05-01T16:41:18.129Z,8.00
2019-05-01T16:43:46.578Z,8.23
2019-05-01T16:46:15.008Z,13.38
2019-05-01T16:48:43.478Z,9.73
2019-05-01T16:51:12.276Z,8.63
2019-05-01T16:53:40.712Z,7.95
2019-05-01T16:56:09.564Z,13.60
2019-05-01T16:58:38.452Z,8.80
2019-05-01T17:01:09.404Z,8.85
2019-05-01T17:03:39.479Z,9.58
2019-05-01T17:06:26.020Z,7.28
2019-05-01T17:09:02.491Z,8.68
2019-05-01T17:11:32.939Z,8.13
2019-05-01T17:14:01.370Z,6.75
2019-05-01T17:16:29.807Z,8.05
2019-05-01T17:18:58.241Z,7.65
2019-05-01T17:21:26.690Z,8.80
2019-05-01T17:23:55.108Z,8.05
2019-05-01T17:26:23.544Z,8.08
2019-05-01T17:28:52.013Z,11.40
2019-05-01T17:31:20.449Z,7.00
2019-05-01T17:33:50.920Z,7.90
2019-05-01T17:36:19.312Z,9.00
2019-05-01T17:38:49.605Z,6.45
2019-05-01T17:41:18.227Z,6.58
2019-05-01T17:43:49.416Z,7.85
2019-05-01T17:46:17.112Z,6.87
2019-05-01T17:48:45.867Z,6.35
2019-05-01T17:51:14.357Z,9.35
2019-05-01T17:53:43.120Z,9.45
2019-05-01T17:56:15.314Z,10.25
2019-05-01T17:58:42.031Z,7.28
2019-05-01T18:01:33.369Z,9.73
2019-05-01T18:04:02.335Z,8.25
2019-05-01T18:06:35.433Z,8.20
2019-05-01T18:09:08.035Z,8.40
2019-05-01T18:11:36.731Z,8.30
2019-05-01T18:14:06.070Z,10.03
2019-05-01T18:16:34.516Z,7.47
2019-05-01T18:19:03.031Z,6.97
2019-05-01T18:21:31.637Z,9.70
2019-05-01T18:24:18.845Z,9.88
2019-05-01T18:26:49.108Z,7.50
2019-05-01T18:29:19.215Z,10.68
2019-05-01T18:31:47.703Z,7.58
2019-05-01T18:34:16.171Z,14.28
2019-05-01T18:36:54.992Z,9.45
2019-05-01T18:39:27.198Z,7.45
2019-05-01T18:42:03.352Z,7.50
2019-05-01T18:44:32.150Z,7.53
2019-05-01T18:47:01.074Z,6.97
2019-05-01T18:49:29.943Z,7.53
2019-05-01T18:51:58.738Z,7.78
2019-05-01T18:54:30.409Z,8.73
2019-05-01T18:56:58.160Z,8.43
2019-05-01T18:59:27.056Z,8.70
2019-05-01T19:01:55.630Z,6.87
2019-05-01T19:04:24.736Z,7.65
2019-05-01T19:06:53.331Z,9.23
2019-05-01T19:09:29.950Z,8.05
2019-05-01T19:11:52.221Z,14.53
2019-05-01T19:14:23.513Z,28.98
2019-05-01T19:16:52.081Z,11.12
2019-05-01T19:19:20.790Z,13.10
2019-05-01T19:21:49.339Z,12.80
2019-05-01T19:24:18.261Z,12.43
2019-05-01T19:26:47.028Z,11.10
2019-05-01T19:29:15.547Z,9.33
2019-05-01T19:31:44.270Z,9.23
2019-05-01T19:34:13.144Z,8.13
2019-05-01T19:36:45.134Z,7.00
2019-05-01T19:39:13.011Z,6.05
2019-05-01T19:41:43.730Z,9.80
2019-05-01T19:44:13.958Z,8.70
2019-05-01T19:46:43.232Z,8.45
2019-05-01T19:49:11.740Z,9.48
2019-05-01T19:51:40.211Z,9.00
2019-05-01T19:54:09.116Z,6.30
2019-05-01T19:56:37.942Z,6.28
2019-05-01T19:59:06.415Z,9.35
2019-05-01T20:01:38.391Z,8.80
2019-05-01T20:04:08.429Z,9.50
2019-05-01T20:06:38.512Z,8.95
2019-05-01T20:09:06.733Z,6.95
2019-05-01T20:11:35.464Z,8.43
2019-05-01T20:14:06.116Z,6.78
2019-05-01T20:16:34.434Z,7.50
2019-05-01T20:19:02.927Z,7.42
2019-05-01T20:21:31.664Z,6.92
2019-05-01T20:24:04.470Z,8.15
2019-05-01T20:26:32.006Z,6.97
2019-05-01T20:29:01.417Z,7.00
2019-05-01T20:31:32.599Z,6.80
2019-05-01T20:34:00.029Z,6.50
2019-05-01T20:36:28.461Z,6.95
2019-05-01T20:38:56.904Z,7.30
2019-05-01T20:41:25.415Z,7.75
2019-05-01T20:43:54.176Z,6.35
2019-05-01T20:46:26.246Z,7.53
2019-05-01T20:48:56.002Z,6.60
2019-05-01T20:51:23.933Z,7.65
2019-05-01T20:53:52.483Z,5.28
2019-05-01T20:56:28.762Z,5.80
2019-05-01T20:58:57.732Z,8.93
2019-05-01T21:01:29.379Z,7.85
2019-05-01T21:04:02.585Z,5.95
2019-05-01T21:06:39.056Z,7.45
2019-05-01T21:09:13.730Z,8.33
2019-05-01T21:11:47.440Z,9.15
2019-05-01T21:14:20.072Z,8.93
2019-05-01T21:16:45.200Z,6.75
2019-05-01T21:19:13.731Z,5.87
2019-05-01T21:22:01.527Z,7.58
2019-05-01T21:24:29.957Z,6.53
2019-05-01T21:26:58.391Z,5.30
2019-05-01T21:29:26.837Z,4.10
2019-05-01T21:31:55.263Z,6.28
2019-05-01T21:34:24.497Z,5.65
2019-05-01T21:36:54.030Z,4.92
2019-05-01T21:39:25.037Z,6.22
2019-05-01T21:41:53.769Z,5.85
2019-05-01T21:44:23.412Z,5.42
2019-05-01T21:46:53.485Z,10.08
2019-05-01T21:49:22.925Z,7.80
2019-05-01T21:51:53.035Z,9.55
2019-05-01T21:54:21.965Z,8.40
2019-05-01T21:56:50.723Z,5.95
2019-05-01T21:59:19.151Z,6.95
2019-05-01T22:01:48.060Z,5.20
2019-05-01T22:04:16.504Z,6.28
2019-05-01T22:06:46.914Z,5.70
2019-05-01T22:09:16.841Z,8.53
2019-05-01T22:11:45.780Z,9.28
2019-05-01T22:14:15.936Z,6.58
2019-05-01T22:16:44.617Z,7.83
2019-05-01T22:19:17.864Z,7.35
2019-05-01T22:21:53.741Z,8.00
2019-05-01T22:24:29.709Z,7.78
2019-05-01T22:26:59.780Z,6.40
2019-05-01T22:29:32.173Z,5.87
2019-05-01T22:32:17.489Z,6.45
2019-05-01T22:34:47.566Z,7.90
2019-05-01T22:37:16.300Z,6.12
2019-05-01T22:39:46.724Z,7.95
2019-05-01T22:42:15.220Z,7.17
2019-05-01T22:44:43.665Z,8.65
2019-05-01T22:47:15.038Z,6.22
2019-05-01T22:49:42.332Z,10.93
2019-05-01T22:52:11.101Z,6.25
2019-05-01T22:54:39.813Z,6.03
2019-05-01T22:57:08.265Z,8.15
2019-05-01T22:59:36.708Z,6.97
2019-05-01T23:02:12.920Z,8.25
2019-05-01T23:04:41.383Z,7.12
2019-05-01T23:07:11.753Z,5.95
2019-05-01T23:09:40.632Z,6.35
2019-05-01T23:12:09.079Z,5.65
2019-05-01T23:14:37.808Z,6.42
2019-05-01T23:17:17.145Z,9.53
2019-05-01T23:19:45.959Z,8.18
2019-05-01T23:22:14.606Z,8.40
2019-05-01T23:24:43.099Z,8.13
2019-05-01T23:27:11.552Z,7.92
2019-05-01T23:29:39.963Z,6.72
2019-05-01T23:32:08.781Z,9.13
2019-05-01T23:34:37.213Z,7.37
2019-05-01T23:37:06.530Z,8.60
2019-05-01T23:39:40.379Z,5.83
2019-05-01T23:42:05.248Z,6.10
2019-05-01T23:44:33.700Z,8.23
2019-05-01T23:47:02.122Z,5.70
2019-05-01T23:49:30.584Z,5.60
2019-05-01T23:52:03.454Z,5.33
2019-05-01T23:54:29.443Z,6.70
2019-05-01T23:56:58.950Z,7.17
2019-05-01T23:59:27.768Z,6.12
